KCHD/CHD METAR and TAF weather

Enter ICAO airport designator
Station Type Date Time Source
KCHD METAR 2018/10/22 15:47 UTC NOAA

KCHD 221547Z 11010KT 10SM BKN060 24/14 A2991


Station Type Date Time Source
KCHD Decoded METAR 2018/10/22 15:47 UTC NOAA

Chandler, Chandler Municipal Airport, AZ, United States (KCHD) 33-16-09N 111-48-40W
Oct 22, 2018 - 11:47 AM EDT / 2018.10.22 1547 UTC
Wind: from the ESE (110 degrees) at 12 MPH (10 KT):0
Visibility: 10 mile(s):0
Sky conditions: mostly cloudy
Temperature: 75 F (24 C)
Dew Point: 57 F (14 C)
Relative Humidity: 53%
Pressure (altimeter): 29.91 in. Hg (1012 hPa)
ob: KCHD 221547Z 11010KT 10SM BKN060 24/14 A2991
cycle: 16

Station Type Date Time Source
KCHD TAF UTC NOAA

Error!


Example: see airport list